Arklow Rambler — PBGS — position and weather

sailwx.info

Track history (hours):
 
Tides and Currents Weather Stations Pressure Air Temp Water Temp Dewpoint Dewpoint Depression Visibility Wind Speed Wind Dir Waves Ship Positions

Arklow Rambler

Last reported at 2017-Sep-24 20:58 UTC. Time now 2017-Sep-24 21:24 UTC.
Position N 51°54' W 008°27'.

Length 89 m; draft 6 m.

Type: Cargo ship. MMSI: 245843000.

Date/timePositionNaut miles runAvg speedWind from/ knotsBaromVisibWave heightAir tempDewpointWater temp
2017-Sep-24 20:58N 51°54' W 008°27'0 0.0
2017-Sep-24 20:28N 51°54' W 008°27'0 0.0
2017-Sep-24 19:58N 51°54' W 008°27'0 0.0
2017-Sep-24 19:28N 51°54' W 008°27'0 0.0
2017-Sep-24 18:58N 51°54' W 008°27'0 0.0
2017-Sep-24 18:10N 51°54' W 008°27'0 0.0
2017-Sep-24 17:58N 51°54' W 008°27'0 0.0
2017-Sep-24 17:28N 51°54' W 008°27'0 0.0
2017-Sep-24 16:58N 51°54' W 008°27'0 0.0
2017-Sep-24 16:28N 51°54' W 008°27'0 0.0
2017-Sep-24 15:58N 51°54' W 008°27'0 0.0
2017-Sep-24 15:28N 51°54' W 008°27'0 0.0
2017-Sep-24 14:58N 51°54' W 008°27'0 0.0
2017-Sep-24 14:28N 51°54' W 008°27'0 0.0
2017-Sep-24 13:58N 51°54' W 008°27'0 0.0
2017-Sep-24 13:28N 51°54' W 008°27'0 0.0
2017-Sep-24 12:58N 51°54' W 008°27'0 0.0
2017-Sep-24 12:28N 51°54' W 008°27'0 0.0
2017-Sep-24 11:58N 51°54' W 008°27'0 0.0
2017-Sep-24 11:28N 51°54' W 008°27'0 0.0
2017-Sep-24 10:58N 51°54' W 008°27'0 0.0
2017-Sep-24 10:28N 51°54' W 008°27'0 0.0
2017-Sep-24 09:58N 51°54' W 008°27'0 0.0
2017-Sep-24 09:28N 51°54' W 008°27'0 0.0
2017-Sep-24 08:58N 51°54' W 008°27'0 0.0
2017-Sep-24 08:28N 51°54' W 008°27'0 0.0
2017-Sep-24 07:58N 51°54' W 008°27'0 0.0
2017-Sep-24 07:22N 51°54' W 008°27'0 0.0
2017-Sep-24 06:58N 51°54' W 008°27'0 0.0
2017-Sep-24 06:28N 51°54' W 008°27'0 0.2
2017-Sep-24 06:00N 51°54' W 008°27'1 2.4
2017-Sep-24 05:30N 51°54' W 008°25'4 7.9
2017-Sep-24 05:00N 51°52' W 008°20'3 5.4
2017-Sep-24 04:30N 51°51' W 008°16'0 0.2
2017-Sep-24 03:59N 51°51' W 008°16'0 0.0
2017-Sep-24 03:29N 51°51' W 008°16'0 0.1
2017-Sep-24 02:59N 51°51' W 008°16'0 0.1
2017-Sep-24 02:29N 51°51' W 008°16'0 0.0
2017-Sep-24 01:59N 51°51' W 008°16'0 0.1
2017-Sep-24 01:29N 51°50' W 008°16'0 0.0
2017-Sep-24 00:59N 51°50' W 008°16'0 0.0
2017-Sep-24 00:29N 51°50' W 008°16'0 0.0
2017-Sep-24 00:00N 51°50' W 008°16'1 2.5
2017-Sep-23 23:30N 51°49' W 008°16'5 9.5
2017-Sep-23 23:00N 51°45' W 008°14'510.7
2017-Sep-23 22:30N 51°41' W 008°08'510.5
2017-Sep-23 22:00N 51°37' W 008°02'510.3
2017-Sep-23 21:30N 51°34' W 007°55'5 9.9
2017-Sep-23 21:00N 51°31' W 007°49'5 9.9
2017-Sep-23 20:30N 51°28' W 007°43'510.0
2017-Sep-23 20:00N 51°24' W 007°37'353 8.4
2017-Sep-22 02:00N 51°16' E 001°47'4 7.4
2017-Sep-22 01:30N 51°18' E 001°51'4 7.9
2017-Sep-22 01:00N 51°21' E 001°55'4 8.5
2017-Sep-22 00:30N 51°25' E 001°60'4 8.7
2017-Sep-22 00:00N 51°24' E 002°06'5 9.5
2017-Sep-21 23:30N 51°22' E 002°13'5 9.2
2017-Sep-21 23:00N 51°21' E 002°21'510.8
2017-Sep-21 22:30N 51°23' E 002°29'611.0
2017-Sep-21 22:00N 51°22' E 002°38'510.1
2017-Sep-21 21:30N 51°22' E 002°46'612.7
2017-Sep-21 21:00N 51°23' E 002°56'612.0
2017-Sep-21 20:30N 51°24' E 003°05'612.7
2017-Sep-21 20:00N 51°25' E 003°15'713.3
2017-Sep-21 19:30N 51°25' E 003°26'713.6
2017-Sep-21 19:00N 51°25' E 003°37'713.3
2017-Sep-21 18:30N 51°22' E 003°46'3 5.3
2017-Sep-21 18:00N 51°20' E 003°49'1 1.3
2017-Sep-21 17:30N 51°19' E 003°50'3 5.6
2017-Sep-21 17:00N 51°16' E 003°51'0 0.0
2017-Sep-21 16:27N 51°16' E 003°51'0 0.0
2017-Sep-21 15:57N 51°16' E 003°51'0 0.0
2017-Sep-21 15:27N 51°16' E 003°51'0 0.0
2017-Sep-21 14:57N 51°16' E 003°51'0 0.0
2017-Sep-21 14:27N 51°16' E 003°51'0 0.0
2017-Sep-21 14:00N 51°16' E 003°51'0 0.0
2017-Sep-21 13:30N 51°16' E 003°51'0 0.0
2017-Sep-21 12:59N 51°16' E 003°51'0 0.0
2017-Sep-21 12:29N 51°16' E 003°51'0 0.0
2017-Sep-21 11:56N 51°16' E 003°51'0 0.0
2017-Sep-21 11:26N 51°16' E 003°51'0 0.0
2017-Sep-21 10:50N 51°16' E 003°51'0 0.0
2017-Sep-21 10:29N 51°16' E 003°51'0 0.0
2017-Sep-21 09:56N 51°16' E 003°51'0 0.0
2017-Sep-21 09:26N 51°16' E 003°51'0 0.0
2017-Sep-21 08:50N 51°16' E 003°51'0 0.0
2017-Sep-21 08:26N 51°16' E 003°51'0 0.0
2017-Sep-21 07:59N 51°16' E 003°51'0 0.0
2017-Sep-21 07:26N 51°16' E 003°51'0 0.0
2017-Sep-21 06:56N 51°16' E 003°51'0 0.0
2017-Sep-21 06:29N 51°16' E 003°51'0 0.0
2017-Sep-21 05:56N 51°16' E 003°51'0 0.0
2017-Sep-21 05:26N 51°16' E 003°51'0 0.0
2017-Sep-21 04:56N 51°16' E 003°51'0 0.0
2017-Sep-21 04:29N 51°16' E 003°51'0 0.0
2017-Sep-21 03:59N 51°16' E 003°51'0 0.0
2017-Sep-21 03:29N 51°16' E 003°51'0 0.0
2017-Sep-21 02:56N 51°16' E 003°51'0 0.0
2017-Sep-21 02:26N 51°16' E 003°51'0 0.0
2017-Sep-21 01:59N 51°16' E 003°51'0 0.0
2017-Sep-21 01:23N 51°16' E 003°51'0 0.0
2017-Sep-21 00:59N 51°16' E 003°51'0 0.0
2017-Sep-21 00:29N 51°16' E 003°51'0 0.0
2017-Sep-20 23:59N 51°16' E 003°51'0 0.0
2017-Sep-20 23:29N 51°16' E 003°51'0 0.0
2017-Sep-20 22:59N 51°16' E 003°51'0 0.0
2017-Sep-20 22:29N 51°16' E 003°51'0 0.0
2017-Sep-20 21:56N 51°16' E 003°51'0 0.0
2017-Sep-20 21:29N 51°16' E 003°51'0 0.0
2017-Sep-20 20:59N 51°16' E 003°51'0 0.0
2017-Sep-20 20:26N 51°16' E 003°51'0 0.0
2017-Sep-20 19:59N 51°16' E 003°51'0 0.0
2017-Sep-20 19:29N 51°16' E 003°51'0 0.0
2017-Sep-20 18:59N 51°16' E 003°51'0 0.0
2017-Sep-20 18:29N 51°16' E 003°51'0 0.0
2017-Sep-20 17:59N 51°16' E 003°51'2 3.2
2017-Sep-20 17:30N 51°18' E 003°50'1 2.6
2017-Sep-20 16:58N 51°19' E 003°49'0 0.0
2017-Sep-20 16:28N 51°19' E 003°49'0 0.0
2017-Sep-20 15:58N 51°19' E 003°49'0 0.0
2017-Sep-20 15:28N 51°19' E 003°49'0 0.0
2017-Sep-20 14:58N 51°19' E 003°49'0 0.0
2017-Sep-20 13:58N 51°19' E 003°49'0 0.0
2017-Sep-20 13:31N 51°19' E 003°49'0 0.0
2017-Sep-20 13:01N 51°19' E 003°49'0 0.0
2017-Sep-20 12:31N 51°19' E 003°49'0 0.0
2017-Sep-20 12:00N 51°19' E 003°49'0 0.0
2017-Sep-20 11:30N 51°19' E 003°49'0 0.0
2017-Sep-20 11:00N 51°19' E 003°49'0 0.0
2017-Sep-20 10:30N 51°19' E 003°49'0 0.0
2017-Sep-20 10:01N 51°19' E 003°49'0 0.0
2017-Sep-20 09:30N 51°19' E 003°49'0 0.0
2017-Sep-20 09:00N 51°19' E 003°49'0 0.0
2017-Sep-20 08:30N 51°19' E 003°49'0 0.0
2017-Sep-20 08:00N 51°19' E 003°49'0 0.0
2017-Sep-20 07:30N 51°19' E 003°49'0 0.0
2017-Sep-20 06:57N 51°19' E 003°49'0 0.0
2017-Sep-20 06:27N 51°19' E 003°49'0 0.0
2017-Sep-20 06:00N 51°19' E 003°49'0 0.0
2017-Sep-20 05:30N 51°19' E 003°49'0 0.0
2017-Sep-20 05:00N 51°19' E 003°49'0 0.0
2017-Sep-20 04:30N 51°19' E 003°49'0 0.0
2017-Sep-20 04:00N 51°19' E 003°49'0 0.0
2017-Sep-20 03:30N 51°19' E 003°49'0 0.0
2017-Sep-20 03:00N 51°19' E 003°49'0 0.0
2017-Sep-20 02:30N 51°19' E 003°49'0 0.0
2017-Sep-20 02:00N 51°19' E 003°49'0 0.0
2017-Sep-20 01:30N 51°19' E 003°49'0 0.0
2017-Sep-20 01:00N 51°19' E 003°49'0 0.0
2017-Sep-20 00:30N 51°19' E 003°49'0 0.0
2017-Sep-19 23:57N 51°19' E 003°49'0 0.0
2017-Sep-19 23:30N 51°19' E 003°49'0 0.0
2017-Sep-19 22:57N 51°19' E 003°49'0 0.0
2017-Sep-19 22:30N 51°19' E 003°49'0 0.0
2017-Sep-19 22:00N 51°19' E 003°49'0 0.0
2017-Sep-19 21:30N 51°19' E 003°49'0 0.0
2017-Sep-19 21:00N 51°19' E 003°49'0 0.0
2017-Sep-19 20:30N 51°19' E 003°49'0 0.0
2017-Sep-19 19:57N 51°19' E 003°49'0 0.0
2017-Sep-19 19:30N 51°19' E 003°49'0 0.0
2017-Sep-19 18:57N 51°19' E 003°49'0 0.0
2017-Sep-19 18:30N 51°19' E 003°49'0 0.0
2017-Sep-19 18:00N 51°19' E 003°49'0 0.0
2017-Sep-19 17:30N 51°19' E 003°49'0 0.0
2017-Sep-19 17:00N 51°19' E 003°49'0 0.0
2017-Sep-19 16:30N 51°19' E 003°49'0 0.0
2017-Sep-19 15:57N 51°19' E 003°49'0 0.0
2017-Sep-19 15:30N 51°19' E 003°49'0 0.0
2017-Sep-19 15:00N 51°19' E 003°49'0 0.0
2017-Sep-19 14:30N 51°19' E 003°49'0 0.0
2017-Sep-19 14:00N 51°19' E 003°49'0 0.0
2017-Sep-19 13:30N 51°19' E 003°49'0 0.0
2017-Sep-19 13:00N 51°19' E 003°49'0 0.0
2017-Sep-19 12:30N 51°19' E 003°49'0 0.0
2017-Sep-19 12:00N 51°19' E 003°49'0 0.0
2017-Sep-19 11:30N 51°19' E 003°49'0 0.0
2017-Sep-19 11:00N 51°19' E 003°49'0 0.0
2017-Sep-19 10:30N 51°19' E 003°49'0 0.0
2017-Sep-19 10:00N 51°19' E 003°49'0 0.0
2017-Sep-19 09:30N 51°19' E 003°49'0 0.0
2017-Sep-19 09:00N 51°19' E 003°49'0 0.0
2017-Sep-19 08:30N 51°19' E 003°49'0 0.0
2017-Sep-19 08:00N 51°19' E 003°49'0 0.0
2017-Sep-19 07:30N 51°19' E 003°49'0 0.0
2017-Sep-19 07:00N 51°19' E 003°49'0 0.0
2017-Sep-19 06:30N 51°19' E 003°49'0 0.0
2017-Sep-19 06:00N 51°19' E 003°49'0 0.0
2017-Sep-19 05:30N 51°19' E 003°49'0 0.0
2017-Sep-19 05:00N 51°19' E 003°49'0 0.0
2017-Sep-19 04:30N 51°19' E 003°49'0 0.0
2017-Sep-19 04:00N 51°19' E 003°49'0 0.0
2017-Sep-19 03:29N 51°19' E 003°49'0 0.0
2017-Sep-19 02:59N 51°19' E 003°49'0 0.0
2017-Sep-19 02:29N 51°19' E 003°49'0 0.0
2017-Sep-19 01:56N 51°19' E 003°49'0 0.0
2017-Sep-19 01:29N 51°19' E 003°49'0 0.0
2017-Sep-19 00:59N 51°19' E 003°49'0 0.0
2017-Sep-19 00:29N 51°19' E 003°49'0 0.0
2017-Sep-18 23:59N 51°19' E 003°49'0 0.0
2017-Sep-18 23:29N 51°19' E 003°49'0 0.0
2017-Sep-18 22:59N 51°19' E 003°49'0 0.0
2017-Sep-18 22:29N 51°19' E 003°49'0 0.0
2017-Sep-18 21:59N 51°19' E 003°49'0 0.0
2017-Sep-18 21:29N 51°19' E 003°49'0 0.0
2017-Sep-18 20:59N 51°19' E 003°49'0 0.0
2017-Sep-18 20:29N 51°19' E 003°49'0 0.0
2017-Sep-18 19:53N 51°19' E 003°49'0 0.0
2017-Sep-18 19:29N 51°19' E 003°49'0 0.0
2017-Sep-18 18:59N 51°19' E 003°49'0 0.0
2017-Sep-18 18:29N 51°19' E 003°49'0 0.0
2017-Sep-18 17:59N 51°19' E 003°49'0 0.0
2017-Sep-18 17:29N 51°19' E 003°49'0 0.0
2017-Sep-18 16:59N 51°19' E 003°49'0 0.0
2017-Sep-18 16:29N 51°19' E 003°49'0 0.0
2017-Sep-18 15:59N 51°19' E 003°49'0 0.0
2017-Sep-18 15:29N 51°19' E 003°49'0 0.0
2017-Sep-18 14:56N 51°19' E 003°49'0 0.0
2017-Sep-18 14:29N 51°19' E 003°49'0 0.0
2017-Sep-18 13:59N 51°19' E 003°49'0 0.0
2017-Sep-18 13:29N 51°19' E 003°49'0 0.0
2017-Sep-18 12:59N 51°19' E 003°49'0 0.0
2017-Sep-18 12:29N 51°19' E 003°49'0 0.0
2017-Sep-18 11:59N 51°19' E 003°49'0 0.0
2017-Sep-18 11:29N 51°19' E 003°49'0 0.0
2017-Sep-18 10:59N 51°19' E 003°49'0 0.0
2017-Sep-18 10:29N 51°19' E 003°49'0 0.0
2017-Sep-18 09:59N 51°19' E 003°49'0 0.0
2017-Sep-18 09:29N 51°19' E 003°49'0 0.0
2017-Sep-18 08:59N 51°19' E 003°49'0 0.0
2017-Sep-18 08:26N 51°19' E 003°49'0 0.0
2017-Sep-18 07:59N 51°19' E 003°49'0 0.0
2017-Sep-18 07:29N 51°19' E 003°49'0 0.0
2017-Sep-18 06:59N 51°19' E 003°49'0 0.0
2017-Sep-18 06:29N 51°19' E 003°49'0 0.0
2017-Sep-18 05:59N 51°19' E 003°49'0 0.0
2017-Sep-18 05:29N 51°19' E 003°49'0 0.0
2017-Sep-18 04:59N 51°19' E 003°49'0 0.0
2017-Sep-18 04:29N 51°19' E 003°49'0 0.0
2017-Sep-18 03:59N 51°19' E 003°49'0 0.0
2017-Sep-18 03:29N 51°19' E 003°49'0 0.0
2017-Sep-18 02:59N 51°19' E 003°49'0 0.0
2017-Sep-18 02:29N 51°19' E 003°49'0 0.0
2017-Sep-18 01:59N 51°19' E 003°49'0 0.0
2017-Sep-18 01:29N 51°19' E 003°49'0 0.0
2017-Sep-18 00:53N 51°19' E 003°49'0 0.0
2017-Sep-18 00:29N 51°19' E 003°49'0 0.0
2017-Sep-17 23:59N 51°19' E 003°49'0 0.0
2017-Sep-17 23:26N 51°19' E 003°49'0 0.0
2017-Sep-17 22:59N 51°19' E 003°49'0 0.0
2017-Sep-17 22:23N 51°19' E 003°49'0 0.0
2017-Sep-17 21:59N 51°19' E 003°49'0 0.0
2017-Sep-17 21:29N 51°19' E 003°49'0 0.0
2017-Sep-17 20:59N 51°19' E 003°49'0 0.0
2017-Sep-17 20:29N 51°19' E 003°49'0 0.0
2017-Sep-17 19:59N 51°19' E 003°49'0 0.0
2017-Sep-17 19:29N 51°19' E 003°49'0 0.0
2017-Sep-17 18:58N 51°19' E 003°49'0 0.0
2017-Sep-17 18:28N 51°19' E 003°49'0 0.0
2017-Sep-17 17:58N 51°19' E 003°49'0 0.0
2017-Sep-17 17:28N 51°19' E 003°49'0 0.0
2017-Sep-17 16:58N 51°19' E 003°49'0 0.0
2017-Sep-17 16:29N 51°19' E 003°49'0 0.0
2017-Sep-17 15:58N 51°19' E 003°49'0 0.0
2017-Sep-17 15:28N 51°19' E 003°49'0 0.0
2017-Sep-17 14:58N 51°19' E 003°49'0 0.0
2017-Sep-17 14:28N 51°19' E 003°49'0 0.0
2017-Sep-17 13:58N 51°19' E 003°49'0 0.0
2017-Sep-17 13:28N 51°19' E 003°49'0 0.0
2017-Sep-17 12:58N 51°19' E 003°49'0 0.0
2017-Sep-17 12:28N 51°19' E 003°49'0 0.0
2017-Sep-17 11:58N 51°19' E 003°49'0 0.0
2017-Sep-17 11:28N 51°19' E 003°49'0 0.0
2017-Sep-17 10:58N 51°19' E 003°49'0 0.0
2017-Sep-17 10:28N 51°19' E 003°49'0 0.0
2017-Sep-17 09:58N 51°19' E 003°49'0 0.0
2017-Sep-17 09:28N 51°19' E 003°49'0 0.0
2017-Sep-17 08:58N 51°19' E 003°49'0 0.0
2017-Sep-17 08:28N 51°19' E 003°49'0 0.0
2017-Sep-17 07:58N 51°19' E 003°49'0 0.0
2017-Sep-17 07:28N 51°19' E 003°49'0 0.0
2017-Sep-17 06:58N 51°19' E 003°49'0 0.0
2017-Sep-17 06:28N 51°19' E 003°49'0 0.0
2017-Sep-17 05:58N 51°19' E 003°49'0 0.0
2017-Sep-17 05:28N 51°19' E 003°49'0 0.0
2017-Sep-17 04:58N 51°19' E 003°49'0 0.0
2017-Sep-17 04:28N 51°19' E 003°49'0 0.0
2017-Sep-17 03:58N 51°19' E 003°49'0 0.0
2017-Sep-17 03:28N 51°19' E 003°49'0 0.0
2017-Sep-17 02:58N 51°19' E 003°49'0 0.0
2017-Sep-17 02:28N 51°19' E 003°49'0 0.0
2017-Sep-17 01:58N 51°19' E 003°49'0 0.0
2017-Sep-17 01:28N 51°19' E 003°49'0 0.0
2017-Sep-17 00:58N 51°19' E 003°49'0 0.0
2017-Sep-17 00:28N 51°19' E 003°49'0 0.0
2017-Sep-16 23:58N 51°19' E 003°49'0 0.0
2017-Sep-16 23:28N 51°19' E 003°49'0 0.0
2017-Sep-16 22:58N 51°19' E 003°49'0 0.0
2017-Sep-16 22:28N 51°19' E 003°49'0 0.0
2017-Sep-16 21:55N 51°19' E 003°49'0 0.0
2017-Sep-16 21:28N 51°19' E 003°49'0 0.0
2017-Sep-16 20:58N 51°19' E 003°49'0 0.0
2017-Sep-16 20:28N 51°19' E 003°49'0 0.0
2017-Sep-16 19:58N 51°19' E 003°49'0 0.0
2017-Sep-16 19:28N 51°19' E 003°49'0 0.0
2017-Sep-16 18:58N 51°19' E 003°49'0 0.0
2017-Sep-16 18:25N 51°19' E 003°49'0 0.0
2017-Sep-16 17:58N 51°19' E 003°49'0 0.0
2017-Sep-16 17:28N 51°19' E 003°49'0 0.0
2017-Sep-16 16:58N 51°19' E 003°49'0 0.0
2017-Sep-16 16:28N 51°19' E 003°49'0 0.0
2017-Sep-16 15:58N 51°19' E 003°49'0 0.0
2017-Sep-16 15:28N 51°19' E 003°49'0 0.0
2017-Sep-16 14:58N 51°19' E 003°49'0 0.0
2017-Sep-16 14:28N 51°19' E 003°49'0 0.0
2017-Sep-16 13:58N 51°19' E 003°49'0 0.0
2017-Sep-16 13:25N 51°19' E 003°49'0 0.0
2017-Sep-16 12:58N 51°19' E 003°49'0 0.0
2017-Sep-16 12:28N 51°19' E 003°49'0 0.0
2017-Sep-16 12:01N 51°19' E 003°49'0 0.0
2017-Sep-16 11:28N 51°19' E 003°49'0 0.0
2017-Sep-16 11:01N 51°19' E 003°49'0 0.0
2017-Sep-16 10:27N 51°19' E 003°49'0 0.0
2017-Sep-16 10:00N 51°19' E 003°49'0 0.0
2017-Sep-16 09:30N 51°19' E 003°49'0 0.0
2017-Sep-16 09:00N 51°19' E 003°49'0 0.0
2017-Sep-16 08:27N 51°19' E 003°49'0 0.0
2017-Sep-16 08:00N 51°19' E 003°49'0 0.0
2017-Sep-16 07:30N 51°19' E 003°49'0 0.0
2017-Sep-16 07:00N 51°19' E 003°49'0 0.0
2017-Sep-16 06:30N 51°19' E 003°49'0 0.0
2017-Sep-16 06:00N 51°19' E 003°49'0 0.0
2017-Sep-16 05:30N 51°19' E 003°49'0 0.0
2017-Sep-16 05:00N 51°19' E 003°49'0 0.0
2017-Sep-16 04:30N 51°19' E 003°49'0 0.0
2017-Sep-16 04:00N 51°19' E 003°49'0 0.1
2017-Sep-16 03:29N 51°19' E 003°49'0 0.1
2017-Sep-16 02:59N 51°19' E 003°49'0 0.0
2017-Sep-16 02:29N 51°19' E 003°49'0 0.0
2017-Sep-16 01:59N 51°19' E 003°49'0 0.0
2017-Sep-16 01:29N 51°19' E 003°49'0 0.0
2017-Sep-16 00:56N 51°19' E 003°49'0 0.0
2017-Sep-16 00:29N 51°19' E 003°49'0 0.0
2017-Sep-15 23:59N 51°19' E 003°49'0 0.0
2017-Sep-15 23:29N 51°19' E 003°49'0 0.0
2017-Sep-15 22:59N 51°19' E 003°49'0 0.0
2017-Sep-15 22:29N 51°19' E 003°49'0 0.0
2017-Sep-15 21:59N 51°19' E 003°49'0 0.0
2017-Sep-15 21:29N 51°19' E 003°49'0 0.0
2017-Sep-15 20:59N 51°19' E 003°49'0 0.0
2017-Sep-15 20:29N 51°19' E 003°49'0 0.0
2017-Sep-15 19:59N 51°19' E 003°49'0 0.0
2017-Sep-15 19:29N 51°19' E 003°49'0 0.0
2017-Sep-15 18:59N 51°19' E 003°49'0 0.0
2017-Sep-15 18:29N 51°19' E 003°49'0 0.0
2017-Sep-15 17:59N 51°19' E 003°49'0 0.0
2017-Sep-15 17:29N 51°19' E 003°49'0 0.0
2017-Sep-15 16:59N 51°19' E 003°49'0 0.0
2017-Sep-15 16:29N 51°19' E 003°49'0 0.0
2017-Sep-15 15:59N 51°19' E 003°49'0 0.0
2017-Sep-15 15:30N 51°19' E 003°49'0 0.0
2017-Sep-15 15:00N 51°19' E 003°49'0 0.0
2017-Sep-15 14:30N 51°19' E 003°49'0 0.0
2017-Sep-15 14:00N 51°19' E 003°49'0 0.0
2017-Sep-15 13:30N 51°19' E 003°49'0 0.0
2017-Sep-15 13:00N 51°19' E 003°49'0 0.0
2017-Sep-15 12:30N 51°19' E 003°49'0 1.0
2017-Sep-15 12:00N 51°20' E 003°49'0 0.2
2017-Sep-15 11:30N 51°20' E 003°49'0 0.6
2017-Sep-15 11:00N 51°20' E 003°49'1 2.0
2017-Sep-15 10:30N 51°21' E 003°48'3 6.4
2017-Sep-15 10:00N 51°22' E 003°44'4 8.9
2017-Sep-15 09:30N 51°25' E 003°38'4 8.8
2017-Sep-15 09:00N 51°27' E 003°32'4 8.7
2017-Sep-15 08:30N 51°30' E 003°27'5 8.7
2017-Sep-15 07:55N 51°35' E 003°23'510.7
2017-Sep-15 07:28N 51°39' E 003°20'510.8
2017-Sep-15 06:59N 51°44' E 003°15'42 9.9
2017-Sep-15 02:42N 51°52' E 002°08'211.1
2017-Sep-15 02:30N 51°51' E 002°05'611.2
2017-Sep-15 02:00N 51°49' E 001°57'611.4
2017-Sep-15 01:30N 51°49' E 001°47'612.6
2017-Sep-15 01:01N 51°51' E 001°38'510.0
2017-Sep-15 00:30N 51°55' E 001°33'510.9
2017-Sep-15 00:00N 51°56' E 001°24'4 9.0
2017-Sep-14 23:31N 51°58' E 001°17'4 8.9
2017-Sep-14 23:01N 52°00' E 001°12'2 4.4
2017-Sep-14 22:29N 52°02' E 001°09'0 0.0
2017-Sep-14 21:59N 52°02' E 001°09'0 0.0
2017-Sep-14 21:29N 52°02' E 001°09'0 0.0
2017-Sep-14 20:59N 52°02' E 001°09'  
Track history (hours):
 
Tides and Currents Weather Stations Pressure Air Temp Water Temp Dewpoint Dewpoint Depression Visibility Wind Speed Wind Dir Waves Ship Positions

Arklow Rambler

Last reported at 2017-Sep-24 20:58 UTC. Time now 2017-Sep-24 21:24 UTC.
Position N 51°54' W 008°27'.

Length 89 m; draft 6 m.

Type: Cargo ship. MMSI: 245843000.

Date/timePositionNaut miles runAvg speedWind from/ knotsBaromVisibWave heightAir tempDewpointWater temp
2017-Sep-24 20:58N 51°54' W 008°27'0 0.0
2017-Sep-24 20:28N 51°54' W 008°27'0 0.0
2017-Sep-24 19:58N 51°54' W 008°27'0 0.0
2017-Sep-24 19:28N 51°54' W 008°27'0 0.0
2017-Sep-24 18:58N 51°54' W 008°27'0 0.0
2017-Sep-24 18:10N 51°54' W 008°27'0 0.0
2017-Sep-24 17:58N 51°54' W 008°27'0 0.0
2017-Sep-24 17:28N 51°54' W 008°27'0 0.0
2017-Sep-24 16:58N 51°54' W 008°27'0 0.0
2017-Sep-24 16:28N 51°54' W 008°27'0 0.0
2017-Sep-24 15:58N 51°54' W 008°27'0 0.0
2017-Sep-24 15:28N 51°54' W 008°27'0 0.0
2017-Sep-24 14:58N 51°54' W 008°27'0 0.0
2017-Sep-24 14:28N 51°54' W 008°27'0 0.0
2017-Sep-24 13:58N 51°54' W 008°27'0 0.0
2017-Sep-24 13:28N 51°54' W 008°27'0 0.0
2017-Sep-24 12:58N 51°54' W 008°27'0 0.0
2017-Sep-24 12:28N 51°54' W 008°27'0 0.0
2017-Sep-24 11:58N 51°54' W 008°27'0 0.0
2017-Sep-24 11:28N 51°54' W 008°27'0 0.0
2017-Sep-24 10:58N 51°54' W 008°27'0 0.0
2017-Sep-24 10:28N 51°54' W 008°27'0 0.0
2017-Sep-24 09:58N 51°54' W 008°27'0 0.0
2017-Sep-24 09:28N 51°54' W 008°27'0 0.0
2017-Sep-24 08:58N 51°54' W 008°27'0 0.0
2017-Sep-24 08:28N 51°54' W 008°27'0 0.0
2017-Sep-24 07:58N 51°54' W 008°27'0 0.0
2017-Sep-24 07:22N 51°54' W 008°27'0 0.0
2017-Sep-24 06:58N 51°54' W 008°27'0 0.0
2017-Sep-24 06:28N 51°54' W 008°27'0 0.2
2017-Sep-24 06:00N 51°54' W 008°27'1 2.4
2017-Sep-24 05:30N 51°54' W 008°25'4 7.9
2017-Sep-24 05:00N 51°52' W 008°20'3 5.4
2017-Sep-24 04:30N 51°51' W 008°16'0 0.2
2017-Sep-24 03:59N 51°51' W 008°16'0 0.0
2017-Sep-24 03:29N 51°51' W 008°16'0 0.1
2017-Sep-24 02:59N 51°51' W 008°16'0 0.1
2017-Sep-24 02:29N 51°51' W 008°16'0 0.0
2017-Sep-24 01:59N 51°51' W 008°16'0 0.1
2017-Sep-24 01:29N 51°50' W 008°16'0 0.0
2017-Sep-24 00:59N 51°50' W 008°16'0 0.0
2017-Sep-24 00:29N 51°50' W 008°16'0 0.0
2017-Sep-24 00:00N 51°50' W 008°16'1 2.5
2017-Sep-23 23:30N 51°49' W 008°16'5 9.5
2017-Sep-23 23:00N 51°45' W 008°14'510.7
2017-Sep-23 22:30N 51°41' W 008°08'510.5
2017-Sep-23 22:00N 51°37' W 008°02'510.3
2017-Sep-23 21:30N 51°34' W 007°55'5 9.9
2017-Sep-23 21:00N 51°31' W 007°49'5 9.9
2017-Sep-23 20:30N 51°28' W 007°43'510.0
2017-Sep-23 20:00N 51°24' W 007°37'353 8.4
2017-Sep-22 02:00N 51°16' E 001°47'4 7.4
2017-Sep-22 01:30N 51°18' E 001°51'4 7.9
2017-Sep-22 01:00N 51°21' E 001°55'4 8.5
2017-Sep-22 00:30N 51°25' E 001°60'4 8.7
2017-Sep-22 00:00N 51°24' E 002°06'5 9.5
2017-Sep-21 23:30N 51°22' E 002°13'5 9.2
2017-Sep-21 23:00N 51°21' E 002°21'510.8
2017-Sep-21 22:30N 51°23' E 002°29'611.0
2017-Sep-21 22:00N 51°22' E 002°38'510.1
2017-Sep-21 21:30N 51°22' E 002°46'612.7
2017-Sep-21 21:00N 51°23' E 002°56'612.0
2017-Sep-21 20:30N 51°24' E 003°05'612.7
2017-Sep-21 20:00N 51°25' E 003°15'713.3
2017-Sep-21 19:30N 51°25' E 003°26'713.6
2017-Sep-21 19:00N 51°25' E 003°37'713.3
2017-Sep-21 18:30N 51°22' E 003°46'3 5.3
2017-Sep-21 18:00N 51°20' E 003°49'1 1.3
2017-Sep-21 17:30N 51°19' E 003°50'3 5.6
2017-Sep-21 17:00N 51°16' E 003°51'0 0.0
2017-Sep-21 16:27N 51°16' E 003°51'0 0.0
2017-Sep-21 15:57N 51°16' E 003°51'0 0.0
2017-Sep-21 15:27N 51°16' E 003°51'0 0.0
2017-Sep-21 14:57N 51°16' E 003°51'0 0.0
2017-Sep-21 14:27N 51°16' E 003°51'0 0.0
2017-Sep-21 14:00N 51°16' E 003°51'0 0.0
2017-Sep-21 13:30N 51°16' E 003°51'0 0.0
2017-Sep-21 12:59N 51°16' E 003°51'0 0.0
2017-Sep-21 12:29N 51°16' E 003°51'0 0.0
2017-Sep-21 11:56N 51°16' E 003°51'0 0.0
2017-Sep-21 11:26N 51°16' E 003°51'0 0.0
2017-Sep-21 10:50N 51°16' E 003°51'0 0.0
2017-Sep-21 10:29N 51°16' E 003°51'0 0.0
2017-Sep-21 09:56N 51°16' E 003°51'0 0.0
2017-Sep-21 09:26N 51°16' E 003°51'0 0.0
2017-Sep-21 08:50N 51°16' E 003°51'0 0.0
2017-Sep-21 08:26N 51°16' E 003°51'0 0.0
2017-Sep-21 07:59N 51°16' E 003°51'0 0.0
2017-Sep-21 07:26N 51°16' E 003°51'0 0.0
2017-Sep-21 06:56N 51°16' E 003°51'0 0.0
2017-Sep-21 06:29N 51°16' E 003°51'0 0.0
2017-Sep-21 05:56N 51°16' E 003°51'0 0.0
2017-Sep-21 05:26N 51°16' E 003°51'0 0.0
2017-Sep-21 04:56N 51°16' E 003°51'0 0.0
2017-Sep-21 04:29N 51°16' E 003°51'0 0.0
2017-Sep-21 03:59N 51°16' E 003°51'0 0.0
2017-Sep-21 03:29N 51°16' E 003°51'0 0.0
2017-Sep-21 02:56N 51°16' E 003°51'0 0.0
2017-Sep-21 02:26N 51°16' E 003°51'0 0.0
2017-Sep-21 01:59N 51°16' E 003°51'0 0.0
2017-Sep-21 01:23N 51°16' E 003°51'0 0.0
2017-Sep-21 00:59N 51°16' E 003°51'0 0.0
2017-Sep-21 00:29N 51°16' E 003°51'0 0.0
2017-Sep-20 23:59N 51°16' E 003°51'0 0.0
2017-Sep-20 23:29N 51°16' E 003°51'0 0.0
2017-Sep-20 22:59N 51°16' E 003°51'0 0.0
2017-Sep-20 22:29N 51°16' E 003°51'0 0.0
2017-Sep-20 21:56N 51°16' E 003°51'0 0.0
2017-Sep-20 21:29N 51°16' E 003°51'0 0.0
2017-Sep-20 20:59N 51°16' E 003°51'0 0.0
2017-Sep-20 20:26N 51°16' E 003°51'0 0.0
2017-Sep-20 19:59N 51°16' E 003°51'0 0.0
2017-Sep-20 19:29N 51°16' E 003°51'0 0.0
2017-Sep-20 18:59N 51°16' E 003°51'0 0.0
2017-Sep-20 18:29N 51°16' E 003°51'0 0.0
2017-Sep-20 17:59N 51°16' E 003°51'2 3.2
2017-Sep-20 17:30N 51°18' E 003°50'1 2.6
2017-Sep-20 16:58N 51°19' E 003°49'0 0.0
2017-Sep-20 16:28N 51°19' E 003°49'0 0.0
2017-Sep-20 15:58N 51°19' E 003°49'0 0.0
2017-Sep-20 15:28N 51°19' E 003°49'0 0.0
2017-Sep-20 14:58N 51°19' E 003°49'0 0.0
2017-Sep-20 13:58N 51°19' E 003°49'0 0.0
2017-Sep-20 13:31N 51°19' E 003°49'0 0.0
2017-Sep-20 13:01N 51°19' E 003°49'0 0.0
2017-Sep-20 12:31N 51°19' E 003°49'0 0.0
2017-Sep-20 12:00N 51°19' E 003°49'0 0.0
2017-Sep-20 11:30N 51°19' E 003°49'0 0.0
2017-Sep-20 11:00N 51°19' E 003°49'0 0.0
2017-Sep-20 10:30N 51°19' E 003°49'0 0.0
2017-Sep-20 10:01N 51°19' E 003°49'0 0.0
2017-Sep-20 09:30N 51°19' E 003°49'0 0.0
2017-Sep-20 09:00N 51°19' E 003°49'0 0.0
2017-Sep-20 08:30N 51°19' E 003°49'0 0.0
2017-Sep-20 08:00N 51°19' E 003°49'0 0.0
2017-Sep-20 07:30N 51°19' E 003°49'0 0.0
2017-Sep-20 06:57N 51°19' E 003°49'0 0.0
2017-Sep-20 06:27N 51°19' E 003°49'0 0.0
2017-Sep-20 06:00N 51°19' E 003°49'0 0.0
2017-Sep-20 05:30N 51°19' E 003°49'0 0.0
2017-Sep-20 05:00N 51°19' E 003°49'0 0.0
2017-Sep-20 04:30N 51°19' E 003°49'0 0.0
2017-Sep-20 04:00N 51°19' E 003°49'0 0.0
2017-Sep-20 03:30N 51°19' E 003°49'0 0.0
2017-Sep-20 03:00N 51°19' E 003°49'0 0.0
2017-Sep-20 02:30N 51°19' E 003°49'0 0.0
2017-Sep-20 02:00N 51°19' E 003°49'0 0.0
2017-Sep-20 01:30N 51°19' E 003°49'0 0.0
2017-Sep-20 01:00N 51°19' E 003°49'0 0.0
2017-Sep-20 00:30N 51°19' E 003°49'0 0.0
2017-Sep-19 23:57N 51°19' E 003°49'0 0.0
2017-Sep-19 23:30N 51°19' E 003°49'0 0.0
2017-Sep-19 22:57N 51°19' E 003°49'0 0.0
2017-Sep-19 22:30N 51°19' E 003°49'0 0.0
2017-Sep-19 22:00N 51°19' E 003°49'0 0.0
2017-Sep-19 21:30N 51°19' E 003°49'0 0.0
2017-Sep-19 21:00N 51°19' E 003°49'0 0.0
2017-Sep-19 20:30N 51°19' E 003°49'0 0.0
2017-Sep-19 19:57N 51°19' E 003°49'0 0.0
2017-Sep-19 19:30N 51°19' E 003°49'0 0.0
2017-Sep-19 18:57N 51°19' E 003°49'0 0.0
2017-Sep-19 18:30N 51°19' E 003°49'0 0.0
2017-Sep-19 18:00N 51°19' E 003°49'0 0.0
2017-Sep-19 17:30N 51°19' E 003°49'0 0.0
2017-Sep-19 17:00N 51°19' E 003°49'0 0.0
2017-Sep-19 16:30N 51°19' E 003°49'0 0.0
2017-Sep-19 15:57N 51°19' E 003°49'0 0.0
2017-Sep-19 15:30N 51°19' E 003°49'0 0.0
2017-Sep-19 15:00N 51°19' E 003°49'0 0.0
2017-Sep-19 14:30N 51°19' E 003°49'0 0.0
2017-Sep-19 14:00N 51°19' E 003°49'0 0.0
2017-Sep-19 13:30N 51°19' E 003°49'0 0.0
2017-Sep-19 13:00N 51°19' E 003°49'0 0.0
2017-Sep-19 12:30N 51°19' E 003°49'0 0.0
2017-Sep-19 12:00N 51°19' E 003°49'0 0.0
2017-Sep-19 11:30N 51°19' E 003°49'0 0.0
2017-Sep-19 11:00N 51°19' E 003°49'0 0.0
2017-Sep-19 10:30N 51°19' E 003°49'0 0.0
2017-Sep-19 10:00N 51°19' E 003°49'0 0.0
2017-Sep-19 09:30N 51°19' E 003°49'0 0.0
2017-Sep-19 09:00N 51°19' E 003°49'0 0.0
2017-Sep-19 08:30N 51°19' E 003°49'0 0.0
2017-Sep-19 08:00N 51°19' E 003°49'0 0.0
2017-Sep-19 07:30N 51°19' E 003°49'0 0.0
2017-Sep-19 07:00N 51°19' E 003°49'0 0.0
2017-Sep-19 06:30N 51°19' E 003°49'0 0.0
2017-Sep-19 06:00N 51°19' E 003°49'0 0.0
2017-Sep-19 05:30N 51°19' E 003°49'0 0.0
2017-Sep-19 05:00N 51°19' E 003°49'0 0.0
2017-Sep-19 04:30N 51°19' E 003°49'0 0.0
2017-Sep-19 04:00N 51°19' E 003°49'0 0.0
2017-Sep-19 03:29N 51°19' E 003°49'0 0.0
2017-Sep-19 02:59N 51°19' E 003°49'0 0.0
2017-Sep-19 02:29N 51°19' E 003°49'0 0.0
2017-Sep-19 01:56N 51°19' E 003°49'0 0.0
2017-Sep-19 01:29N 51°19' E 003°49'0 0.0
2017-Sep-19 00:59N 51°19' E 003°49'0 0.0
2017-Sep-19 00:29N 51°19' E 003°49'0 0.0
2017-Sep-18 23:59N 51°19' E 003°49'0 0.0
2017-Sep-18 23:29N 51°19' E 003°49'0 0.0
2017-Sep-18 22:59N 51°19' E 003°49'0 0.0
2017-Sep-18 22:29N 51°19' E 003°49'0 0.0
2017-Sep-18 21:59N 51°19' E 003°49'0 0.0
2017-Sep-18 21:29N 51°19' E 003°49'0 0.0
2017-Sep-18 20:59N 51°19' E 003°49'0 0.0
2017-Sep-18 20:29N 51°19' E 003°49'0 0.0
2017-Sep-18 19:53N 51°19' E 003°49'0 0.0
2017-Sep-18 19:29N 51°19' E 003°49'0 0.0
2017-Sep-18 18:59N 51°19' E 003°49'0 0.0
2017-Sep-18 18:29N 51°19' E 003°49'0 0.0
2017-Sep-18 17:59N 51°19' E 003°49'0 0.0
2017-Sep-18 17:29N 51°19' E 003°49'0 0.0
2017-Sep-18 16:59N 51°19' E 003°49'0 0.0
2017-Sep-18 16:29N 51°19' E 003°49'0 0.0
2017-Sep-18 15:59N 51°19' E 003°49'0 0.0
2017-Sep-18 15:29N 51°19' E 003°49'0 0.0
2017-Sep-18 14:56N 51°19' E 003°49'0 0.0
2017-Sep-18 14:29N 51°19' E 003°49'0 0.0
2017-Sep-18 13:59N 51°19' E 003°49'0 0.0
2017-Sep-18 13:29N 51°19' E 003°49'0 0.0
2017-Sep-18 12:59N 51°19' E 003°49'0 0.0
2017-Sep-18 12:29N 51°19' E 003°49'0 0.0
2017-Sep-18 11:59N 51°19' E 003°49'0 0.0
2017-Sep-18 11:29N 51°19' E 003°49'0 0.0
2017-Sep-18 10:59N 51°19' E 003°49'0 0.0
2017-Sep-18 10:29N 51°19' E 003°49'0 0.0
2017-Sep-18 09:59N 51°19' E 003°49'0 0.0
2017-Sep-18 09:29N 51°19' E 003°49'0 0.0
2017-Sep-18 08:59N 51°19' E 003°49'0 0.0
2017-Sep-18 08:26N 51°19' E 003°49'0 0.0
2017-Sep-18 07:59N 51°19' E 003°49'0 0.0
2017-Sep-18 07:29N 51°19' E 003°49'0 0.0
2017-Sep-18 06:59N 51°19' E 003°49'0 0.0
2017-Sep-18 06:29N 51°19' E 003°49'0 0.0
2017-Sep-18 05:59N 51°19' E 003°49'0 0.0
2017-Sep-18 05:29N 51°19' E 003°49'0 0.0
2017-Sep-18 04:59N 51°19' E 003°49'0 0.0
2017-Sep-18 04:29N 51°19' E 003°49'0 0.0
2017-Sep-18 03:59N 51°19' E 003°49'0 0.0
2017-Sep-18 03:29N 51°19' E 003°49'0 0.0
2017-Sep-18 02:59N 51°19' E 003°49'0 0.0
2017-Sep-18 02:29N 51°19' E 003°49'0 0.0
2017-Sep-18 01:59N 51°19' E 003°49'0 0.0
2017-Sep-18 01:29N 51°19' E 003°49'0 0.0
2017-Sep-18 00:53N 51°19' E 003°49'0 0.0
2017-Sep-18 00:29N 51°19' E 003°49'0 0.0
2017-Sep-17 23:59N 51°19' E 003°49'0 0.0
2017-Sep-17 23:26N 51°19' E 003°49'0 0.0
2017-Sep-17 22:59N 51°19' E 003°49'0 0.0
2017-Sep-17 22:23N 51°19' E 003°49'0 0.0
2017-Sep-17 21:59N 51°19' E 003°49'0 0.0
2017-Sep-17 21:29N 51°19' E 003°49'0 0.0
2017-Sep-17 20:59N 51°19' E 003°49'0 0.0
2017-Sep-17 20:29N 51°19' E 003°49'0 0.0
2017-Sep-17 19:59N 51°19' E 003°49'0 0.0
2017-Sep-17 19:29N 51°19' E 003°49'0 0.0
2017-Sep-17 18:58N 51°19' E 003°49'0 0.0
2017-Sep-17 18:28N 51°19' E 003°49'0 0.0
2017-Sep-17 17:58N 51°19' E 003°49'0 0.0
2017-Sep-17 17:28N 51°19' E 003°49'0 0.0
2017-Sep-17 16:58N 51°19' E 003°49'0 0.0
2017-Sep-17 16:29N 51°19' E 003°49'0 0.0
2017-Sep-17 15:58N 51°19' E 003°49'0 0.0
2017-Sep-17 15:28N 51°19' E 003°49'0 0.0
2017-Sep-17 14:58N 51°19' E 003°49'0 0.0
2017-Sep-17 14:28N 51°19' E 003°49'0 0.0
2017-Sep-17 13:58N 51°19' E 003°49'0 0.0
2017-Sep-17 13:28N 51°19' E 003°49'0 0.0
2017-Sep-17 12:58N 51°19' E 003°49'0 0.0
2017-Sep-17 12:28N 51°19' E 003°49'0 0.0
2017-Sep-17 11:58N 51°19' E 003°49'0 0.0
2017-Sep-17 11:28N 51°19' E 003°49'0 0.0
2017-Sep-17 10:58N 51°19' E 003°49'0 0.0
2017-Sep-17 10:28N 51°19' E 003°49'0 0.0
2017-Sep-17 09:58N 51°19' E 003°49'0 0.0
2017-Sep-17 09:28N 51°19' E 003°49'0 0.0
2017-Sep-17 08:58N 51°19' E 003°49'0 0.0
2017-Sep-17 08:28N 51°19' E 003°49'0 0.0
2017-Sep-17 07:58N 51°19' E 003°49'0 0.0
2017-Sep-17 07:28N 51°19' E 003°49'0 0.0
2017-Sep-17 06:58N 51°19' E 003°49'0 0.0
2017-Sep-17 06:28N 51°19' E 003°49'0 0.0
2017-Sep-17 05:58N 51°19' E 003°49'0 0.0
2017-Sep-17 05:28N 51°19' E 003°49'0 0.0
2017-Sep-17 04:58N 51°19' E 003°49'0 0.0
2017-Sep-17 04:28N 51°19' E 003°49'0 0.0
2017-Sep-17 03:58N 51°19' E 003°49'0 0.0
2017-Sep-17 03:28N 51°19' E 003°49'0 0.0
2017-Sep-17 02:58N 51°19' E 003°49'0 0.0
2017-Sep-17 02:28N 51°19' E 003°49'0 0.0
2017-Sep-17 01:58N 51°19' E 003°49'0 0.0
2017-Sep-17 01:28N 51°19' E 003°49'0 0.0
2017-Sep-17 00:58N 51°19' E 003°49'0 0.0
2017-Sep-17 00:28N 51°19' E 003°49'0 0.0
2017-Sep-16 23:58N 51°19' E 003°49'0 0.0
2017-Sep-16 23:28N 51°19' E 003°49'0 0.0
2017-Sep-16 22:58N 51°19' E 003°49'0 0.0
2017-Sep-16 22:28N 51°19' E 003°49'0 0.0
2017-Sep-16 21:55N 51°19' E 003°49'0 0.0
2017-Sep-16 21:28N 51°19' E 003°49'0 0.0
2017-Sep-16 20:58N 51°19' E 003°49'0 0.0
2017-Sep-16 20:28N 51°19' E 003°49'0 0.0
2017-Sep-16 19:58N 51°19' E 003°49'0 0.0
2017-Sep-16 19:28N 51°19' E 003°49'0 0.0
2017-Sep-16 18:58N 51°19' E 003°49'0 0.0
2017-Sep-16 18:25N 51°19' E 003°49'0 0.0
2017-Sep-16 17:58N 51°19' E 003°49'0 0.0
2017-Sep-16 17:28N 51°19' E 003°49'0 0.0
2017-Sep-16 16:58N 51°19' E 003°49'0 0.0
2017-Sep-16 16:28N 51°19' E 003°49'0 0.0
2017-Sep-16 15:58N 51°19' E 003°49'0 0.0
2017-Sep-16 15:28N 51°19' E 003°49'0 0.0
2017-Sep-16 14:58N 51°19' E 003°49'0 0.0
2017-Sep-16 14:28N 51°19' E 003°49'0 0.0
2017-Sep-16 13:58N 51°19' E 003°49'0 0.0
2017-Sep-16 13:25N 51°19' E 003°49'0 0.0
2017-Sep-16 12:58N 51°19' E 003°49'0 0.0
2017-Sep-16 12:28N 51°19' E 003°49'0 0.0
2017-Sep-16 12:01N 51°19' E 003°49'0 0.0
2017-Sep-16 11:28N 51°19' E 003°49'0 0.0
2017-Sep-16 11:01N 51°19' E 003°49'0 0.0
2017-Sep-16 10:27N 51°19' E 003°49'0 0.0
2017-Sep-16 10:00N 51°19' E 003°49'0 0.0
2017-Sep-16 09:30N 51°19' E 003°49'0 0.0
2017-Sep-16 09:00N 51°19' E 003°49'0 0.0
2017-Sep-16 08:27N 51°19' E 003°49'0 0.0
2017-Sep-16 08:00N 51°19' E 003°49'0 0.0
2017-Sep-16 07:30N 51°19' E 003°49'0 0.0
2017-Sep-16 07:00N 51°19' E 003°49'0 0.0
2017-Sep-16 06:30N 51°19' E 003°49'0 0.0
2017-Sep-16 06:00N 51°19' E 003°49'0 0.0
2017-Sep-16 05:30N 51°19' E 003°49'0 0.0
2017-Sep-16 05:00N 51°19' E 003°49'0 0.0
2017-Sep-16 04:30N 51°19' E 003°49'0 0.0
2017-Sep-16 04:00N 51°19' E 003°49'0 0.1
2017-Sep-16 03:29N 51°19' E 003°49'0 0.1
2017-Sep-16 02:59N 51°19' E 003°49'0 0.0
2017-Sep-16 02:29N 51°19' E 003°49'0 0.0
2017-Sep-16 01:59N 51°19' E 003°49'0 0.0
2017-Sep-16 01:29N 51°19' E 003°49'0 0.0
2017-Sep-16 00:56N 51°19' E 003°49'0 0.0
2017-Sep-16 00:29N 51°19' E 003°49'0 0.0
2017-Sep-15 23:59N 51°19' E 003°49'0 0.0
2017-Sep-15 23:29N 51°19' E 003°49'0 0.0
2017-Sep-15 22:59N 51°19' E 003°49'0 0.0
2017-Sep-15 22:29N 51°19' E 003°49'0 0.0
2017-Sep-15 21:59N 51°19' E 003°49'0 0.0
2017-Sep-15 21:29N 51°19' E 003°49'0 0.0
2017-Sep-15 20:59N 51°19' E 003°49'0 0.0
2017-Sep-15 20:29N 51°19' E 003°49'0 0.0
2017-Sep-15 19:59N 51°19' E 003°49'0 0.0
2017-Sep-15 19:29N 51°19' E 003°49'0 0.0
2017-Sep-15 18:59N 51°19' E 003°49'0 0.0
2017-Sep-15 18:29N 51°19' E 003°49'0 0.0
2017-Sep-15 17:59N 51°19' E 003°49'0 0.0
2017-Sep-15 17:29N 51°19' E 003°49'0 0.0
2017-Sep-15 16:59N 51°19' E 003°49'0 0.0
2017-Sep-15 16:29N 51°19' E 003°49'0 0.0
2017-Sep-15 15:59N 51°19' E 003°49'0 0.0
2017-Sep-15 15:30N 51°19' E 003°49'0 0.0
2017-Sep-15 15:00N 51°19' E 003°49'0 0.0
2017-Sep-15 14:30N 51°19' E 003°49'0 0.0
2017-Sep-15 14:00N 51°19' E 003°49'0 0.0
2017-Sep-15 13:30N 51°19' E 003°49'0 0.0
2017-Sep-15 13:00N 51°19' E 003°49'0 0.0
2017-Sep-15 12:30N 51°19' E 003°49'0 1.0
2017-Sep-15 12:00N 51°20' E 003°49'0 0.2
2017-Sep-15 11:30N 51°20' E 003°49'0 0.6
2017-Sep-15 11:00N 51°20' E 003°49'1 2.0
2017-Sep-15 10:30N 51°21' E 003°48'3 6.4
2017-Sep-15 10:00N 51°22' E 003°44'4 8.9
2017-Sep-15 09:30N 51°25' E 003°38'4 8.8
2017-Sep-15 09:00N 51°27' E 003°32'4 8.7
2017-Sep-15 08:30N 51°30' E 003°27'5 8.7
2017-Sep-15 07:55N 51°35' E 003°23'510.7
2017-Sep-15 07:28N 51°39' E 003°20'510.8
2017-Sep-15 06:59N 51°44' E 003°15'42 9.9
2017-Sep-15 02:42N 51°52' E 002°08'211.1
2017-Sep-15 02:30N 51°51' E 002°05'611.2
2017-Sep-15 02:00N 51°49' E 001°57'611.4
2017-Sep-15 01:30N 51°49' E 001°47'612.6
2017-Sep-15 01:01N 51°51' E 001°38'510.0
2017-Sep-15 00:30N 51°55' E 001°33'510.9
2017-Sep-15 00:00N 51°56' E 001°24'4 9.0
2017-Sep-14 23:31N 51°58' E 001°17'4 8.9
2017-Sep-14 23:01N 52°00' E 001°12'2 4.4
2017-Sep-14 22:29N 52°02' E 001°09'0 0.0
2017-Sep-14 21:59N 52°02' E 001°09'0 0.0
2017-Sep-14 21:29N 52°02' E 001°09'0 0.0
2017-Sep-14 20:59N 52°02' E 001°09'  

Dump ship's entire track history